sensor_id;sensor_type;location;lat;lon;timestamp;pressure;altitude;pressure_sealevel;temperature;humidity
76746;BME280;65671;49.976;20.038;2023-04-24T00:00:05;97195.09;;;12.91;45.26
76746;BME280;65671;49.976;20.038;2023-04-24T00:02:35;97185.69;;;12.79;45.32
76746;BME280;65671;49.976;20.038;2023-04-24T00:05:04;97184.50;;;12.80;45.44
76746;BME280;65671;49.976;20.038;2023-04-24T00:07:31;97188.47;;;12.75;46.06
76746;BME280;65671;49.976;20.038;2023-04-24T00:09:56;97181.38;;;12.65;46.34
76746;BME280;65671;49.976;20.038;2023-04-24T00:12:22;97185.25;;;12.64;45.33
76746;BME280;65671;49.976;20.038;2023-04-24T00:14:48;97180.19;;;12.66;46.03
76746;BME280;65671;49.976;20.038;2023-04-24T00:17:13;97176.78;;;12.62;45.74
76746;BME280;65671;49.976;20.038;2023-04-24T00:19:39;97186.19;;;12.58;46.40
76746;BME280;65671;49.976;20.038;2023-04-24T00:22:04;97181.13;;;12.60;45.69
76746;BME280;65671;49.976;20.038;2023-04-24T00:24:31;97181.25;;;12.37;46.21
76746;BME280;65671;49.976;20.038;2023-04-24T00:26:57;97166.66;;;12.30;47.84
76746;BME280;65671;49.976;20.038;2023-04-24T00:29:22;97174.19;;;12.23;46.87
76746;BME280;65671;49.976;20.038;2023-04-24T00:31:48;97163.31;;;12.07;47.27
76746;BME280;65671;49.976;20.038;2023-04-24T00:34:13;97174.66;;;12.02;48.34
76746;BME280;65671;49.976;20.038;2023-04-24T00:36:39;97164.50;;;12.06;47.44
76746;BME280;65671;49.976;20.038;2023-04-24T00:39:05;97164.69;;;12.15;47.09
76746;BME280;65671;49.976;20.038;2023-04-24T00:41:34;97167.53;;;12.08;47.26
76746;BME280;65671;49.976;20.038;2023-04-24T00:43:59;97160.78;;;12.16;46.93
76746;BME280;65671;49.976;20.038;2023-04-24T00:46:25;97150.84;;;12.09;47.04
76746;BME280;65671;49.976;20.038;2023-04-24T00:48:50;97163.66;;;12.09;47.04
76746;BME280;65671;49.976;20.038;2023-04-24T00:51:16;97162.53;;;12.06;46.96
76746;BME280;65671;49.976;20.038;2023-04-24T00:53:41;97152.69;;;11.96;47.01
76746;BME280;65671;49.976;20.038;2023-04-24T00:56:07;97155.13;;;12.26;46.04
76746;BME280;65671;49.976;20.038;2023-04-24T00:58:33;97143.28;;;12.01;47.29
76746;BME280;65671;49.976;20.038;2023-04-24T01:00:59;97154.63;;;11.96;47.35
76746;BME280;65671;49.976;20.038;2023-04-24T01:03:29;97144.78;;;11.86;48.21
76746;BME280;65671;49.976;20.038;2023-04-24T01:05:55;97152.72;;;11.77;49.16
76746;BME280;65671;49.976;20.038;2023-04-24T01:08:23;97151.03;;;11.63;49.03
76746;BME280;65671;49.976;20.038;2023-04-24T01:10:51;97150.69;;;11.61;49.24
76746;BME280;65671;49.976;20.038;2023-04-24T01:13:18;97142.00;;;11.50;50.51
76746;BME280;65671;49.976;20.038;2023-04-24T01:15:44;97147.53;;;11.43;50.22
76746;BME280;65671;49.976;20.038;2023-04-24T01:18:10;97143.44;;;11.35;51.27
76746;BME280;65671;49.976;20.038;2023-04-24T01:20:36;97150.28;;;11.62;49.30
76746;BME280;65671;49.976;20.038;2023-04-24T01:23:08;97141.72;;;11.84;48.24
76746;BME280;65671;49.976;20.038;2023-04-24T01:25:34;97140.47;;;11.88;48.03
76746;BME280;65671;49.976;20.038;2023-04-24T01:27:59;97137.09;;;12.00;47.35
76746;BME280;65671;49.976;20.038;2023-04-24T01:30:26;97140.59;;;11.81;49.71
76746;BME280;65671;49.976;20.038;2023-04-24T01:32:53;97129.34;;;11.63;50.52
76746;BME280;65671;49.976;20.038;2023-04-24T01:35:19;97140.09;;;11.66;49.86
76746;BME280;65671;49.976;20.038;2023-04-24T01:37:45;97133.31;;;11.58;50.66
76746;BME280;65671;49.976;20.038;2023-04-24T01:40:11;97128.44;;;11.69;48.39
76746;BME280;65671;49.976;20.038;2023-04-24T01:42:37;97123.50;;;11.64;48.82
76746;BME280;65671;49.976;20.038;2023-04-24T01:45:04;97122.72;;;11.64;49.34
76746;BME280;65671;49.976;20.038;2023-04-24T01:47:31;97120.84;;;11.61;48.61
76746;BME280;65671;49.976;20.038;2023-04-24T01:49:57;97119.19;;;11.67;48.20
76746;BME280;65671;49.976;20.038;2023-04-24T01:55:38;97112.88;;;11.73;49.26
76746;BME280;65671;49.976;20.038;2023-04-24T01:58:04;97105.00;;;11.79;47.58
76746;BME280;65671;49.976;20.038;2023-04-24T02:00:30;97110.88;;;11.78;47.34
76746;BME280;65671;49.976;20.038;2023-04-24T02:02:56;97106.75;;;11.69;47.87
76746;BME280;65671;49.976;20.038;2023-04-24T02:05:21;97102.88;;;11.51;48.24
76746;BME280;65671;49.976;20.038;2023-04-24T02:07:47;97102.66;;;11.42;48.35
76746;BME280;65671;49.976;20.038;2023-04-24T02:10:13;97101.69;;;11.32;48.35
76746;BME280;65671;49.976;20.038;2023-04-24T02:12:38;97092.84;;;11.28;48.68
76746;BME280;65671;49.976;20.038;2023-04-24T02:15:04;97090.25;;;11.25;48.70
76746;BME280;65671;49.976;20.038;2023-04-24T02:17:30;97086.34;;;11.06;50.52
76746;BME280;65671;49.976;20.038;2023-04-24T02:19:56;97083.41;;;10.97;50.58
76746;BME280;65671;49.976;20.038;2023-04-24T02:22:22;97073.63;;;10.83;50.81
76746;BME280;65671;49.976;20.038;2023-04-24T02:24:47;97083.13;;;10.72;53.37
76746;BME280;65671;49.976;20.038;2023-04-24T02:27:13;97081.00;;;10.59;52.44
76746;BME280;65671;49.976;20.038;2023-04-24T02:29:38;97081.91;;;10.73;51.86
76746;BME280;65671;49.976;20.038;2023-04-24T02:32:04;97077.69;;;10.72;52.49
76746;BME280;65671;49.976;20.038;2023-04-24T02:34:29;97069.03;;;10.57;52.33
76746;BME280;65671;49.976;20.038;2023-04-24T02:36:55;97066.16;;;10.68;53.16
76746;BME280;65671;49.976;20.038;2023-04-24T02:39:21;97051.91;;;10.63;53.06
76746;BME280;65671;49.976;20.038;2023-04-24T02:41:46;97062.16;;;10.52;53.40
76746;BME280;65671;49.976;20.038;2023-04-24T02:44:12;97053.34;;;10.48;53.58
76746;BME280;65671;49.976;20.038;2023-04-24T02:46:38;97051.63;;;10.58;53.11
76746;BME280;65671;49.976;20.038;2023-04-24T02:49:03;97051.84;;;10.67;52.11
76746;BME280;65671;49.976;20.038;2023-04-24T02:51:29;97044.66;;;10.57;53.46
76746;BME280;65671;49.976;20.038;2023-04-24T02:53:55;97051.81;;;10.47;54.00
76746;BME280;65671;49.976;20.038;2023-04-24T02:56:21;97043.47;;;10.38;54.84
76746;BME280;65671;49.976;20.038;2023-04-24T02:58:46;97036.63;;;10.53;53.17
76746;BME280;65671;49.976;20.038;2023-04-24T03:01:12;97037.22;;;10.41;54.48
76746;BME280;65671;49.976;20.038;2023-04-24T03:03:38;97030.47;;;10.30;53.60
76746;BME280;65671;49.976;20.038;2023-04-24T03:06:04;97041.81;;;10.44;53.46
76746;BME280;65671;49.976;20.038;2023-04-24T03:08:31;97044.78;;;10.30;55.10
76746;BME280;65671;49.976;20.038;2023-04-24T03:10:57;97049.72;;;10.35;54.44
76746;BME280;65671;49.976;20.038;2023-04-24T03:13:23;97045.50;;;10.31;53.01
76746;BME280;65671;49.976;20.038;2023-04-24T03:15:48;97043.47;;;10.38;53.26
76746;BME280;65671;49.976;20.038;2023-04-24T03:18:14;97047.47;;;10.30;53.92
76746;BME280;65671;49.976;20.038;2023-04-24T03:20:40;97038.81;;;10.39;52.98
76746;BME280;65671;49.976;20.038;2023-04-24T03:23:05;97036.25;;;10.51;51.66
76746;BME280;65671;49.976;20.038;2023-04-24T03:25:30;97032.88;;;10.47;52.70
76746;BME280;65671;49.976;20.038;2023-04-24T03:27:56;97043.28;;;10.49;52.45
76746;BME280;65671;49.976;20.038;2023-04-24T03:30:22;97041.91;;;10.60;51.53
76746;BME280;65671;49.976;20.038;2023-04-24T03:32:47;97034.63;;;10.57;51.34
76746;BME280;65671;49.976;20.038;2023-04-24T03:35:13;97035.53;;;10.51;53.22
76746;BME280;65671;49.976;20.038;2023-04-24T03:37:39;97029.47;;;10.63;50.98
76746;BME280;65671;49.976;20.038;2023-04-24T03:40:05;97039.56;;;10.62;52.65
76746;BME280;65671;49.976;20.038;2023-04-24T03:42:32;97037.25;;;10.61;51.83
76746;BME280;65671;49.976;20.038;2023-04-24T03:44:57;97036.38;;;10.68;51.70
76746;BME280;65671;49.976;20.038;2023-04-24T03:47:23;97043.66;;;10.51;51.60
76746;BME280;65671;49.976;20.038;2023-04-24T03:49:48;97038.53;;;10.56;52.01
76746;BME280;65671;49.976;20.038;2023-04-24T03:52:14;97037.47;;;10.50;51.80
76746;BME280;65671;49.976;20.038;2023-04-24T03:54:40;97032.28;;;10.59;52.61
76746;BME280;65671;49.976;20.038;2023-04-24T03:57:05;97038.06;;;10.38;53.39
76746;BME280;65671;49.976;20.038;2023-04-24T03:59:31;97043.09;;;10.36;53.53
76746;BME280;65671;49.976;20.038;2023-04-24T04:01:56;97038.75;;;10.19;55.69
76746;BME280;65671;49.976;20.038;2023-04-24T04:04:22;97034.94;;;10.17;54.04
76746;BME280;65671;49.976;20.038;2023-04-24T04:06:48;97034.63;;;10.34;53.19
76746;BME280;65671;49.976;20.038;2023-04-24T04:09:14;97039.88;;;10.45;52.99
76746;BME280;65671;49.976;20.038;2023-04-24T04:11:40;97039.06;;;10.48;52.70
76746;BME280;65671;49.976;20.038;2023-04-24T04:14:05;97039.69;;;10.55;52.33
76746;BME280;65671;49.976;20.038;2023-04-24T04:16:31;97034.66;;;10.54;53.67
76746;BME280;65671;49.976;20.038;2023-04-24T04:18:57;97039.50;;;10.43;54.73
76746;BME280;65671;49.976;20.038;2023-04-24T04:21:22;97041.09;;;10.40;54.59
76746;BME280;65671;49.976;20.038;2023-04-24T04:23:48;97038.13;;;10.35;55.28
76746;BME280;65671;49.976;20.038;2023-04-24T04:26:14;97033.69;;;10.44;55.00
76746;BME280;65671;49.976;20.038;2023-04-24T04:28:39;97037.75;;;10.56;53.31
76746;BME280;65671;49.976;20.038;2023-04-24T04:31:06;97030.69;;;10.62;55.04
76746;BME280;65671;49.976;20.038;2023-04-24T04:33:33;97031.47;;;10.82;53.58
76746;BME280;65671;49.976;20.038;2023-04-24T04:35:59;97035.69;;;10.83;56.33
76746;BME280;65671;49.976;20.038;2023-04-24T04:38:25;97028.75;;;11.02;52.36
76746;BME280;65671;49.976;20.038;2023-04-24T04:40:55;97028.28;;;11.07;52.32
76746;BME280;65671;49.976;20.038;2023-04-24T04:43:23;97017.63;;;11.16;51.15
76746;BME280;65671;49.976;20.038;2023-04-24T04:45:49;97016.19;;;11.47;49.03
76746;BME280;65671;49.976;20.038;2023-04-24T04:48:16;97024.84;;;11.42;49.60
76746;BME280;65671;49.976;20.038;2023-04-24T04:50:43;97025.03;;;11.51;48.68
76746;BME280;65671;49.976;20.038;2023-04-24T04:53:08;97020.78;;;11.66;49.86
76746;BME280;65671;49.976;20.038;2023-04-24T04:55:34;97022.03;;;11.82;48.38
76746;BME280;65671;49.976;20.038;2023-04-24T04:58:00;97019.69;;;11.84;49.63
76746;BME280;65671;49.976;20.038;2023-04-24T05:00:26;97015.41;;;11.99;47.92
76746;BME280;65671;49.976;20.038;2023-04-24T05:02:52;97016.44;;;12.21;47.91
76746;BME280;65671;49.976;20.038;2023-04-24T05:05:18;97017.13;;;12.09;49.39
76746;BME280;65671;49.976;20.038;2023-04-24T05:07:44;97023.06;;;12.04;50.09
76746;BME280;65671;49.976;20.038;2023-04-24T05:10:11;97016.03;;;12.06;51.56
76746;BME280;65671;49.976;20.038;2023-04-24T05:12:37;97029.09;;;11.95;52.19
76746;BME280;65671;49.976;20.038;2023-04-24T05:15:03;97024.84;;;12.10;50.17
76746;BME280;65671;49.976;20.038;2023-04-24T05:17:29;97031.09;;;12.23;50.41
76746;BME280;65671;49.976;20.038;2023-04-24T05:19:55;97033.41;;;12.25;50.75
76746;BME280;65671;49.976;20.038;2023-04-24T05:22:20;97027.13;;;12.28;50.71
76746;BME280;65671;49.976;20.038;2023-04-24T05:24:47;97017.19;;;12.38;51.16
76746;BME280;65671;49.976;20.038;2023-04-24T05:27:12;97019.41;;;12.43;50.46
76746;BME280;65671;49.976;20.038;2023-04-24T05:29:38;97018.97;;;12.44;51.16
76746;BME280;65671;49.976;20.038;2023-04-24T05:32:05;97018.25;;;12.56;48.86
76746;BME280;65671;49.976;20.038;2023-04-24T05:34:31;97017.22;;;12.66;48.50
76746;BME280;65671;49.976;20.038;2023-04-24T05:36:56;97018.34;;;12.81;49.20
76746;BME280;65671;49.976;20.038;2023-04-24T05:39:22;97019.88;;;13.11;48.94
76746;BME280;65671;49.976;20.038;2023-04-24T05:41:48;97011.09;;;13.20;49.16
76746;BME280;65671;49.976;20.038;2023-04-24T05:44:13;97010.81;;;13.43;50.13
76746;BME280;65671;49.976;20.038;2023-04-24T05:46:39;97012.88;;;13.39;48.69
76746;BME280;65671;49.976;20.038;2023-04-24T05:49:04;97009.66;;;13.69;48.98
76746;BME280;65671;49.976;20.038;2023-04-24T05:51:31;97009.41;;;13.76;49.59
76746;BME280;65671;49.976;20.038;2023-04-24T05:53:56;97003.53;;;13.78;50.39
76746;BME280;65671;49.976;20.038;2023-04-24T05:56:22;97011.47;;;13.97;49.03
76746;BME280;65671;49.976;20.038;2023-04-24T05:58:48;97010.13;;;14.15;48.39
76746;BME280;65671;49.976;20.038;2023-04-24T06:01:14;97009.81;;;14.25;49.02
76746;BME280;65671;49.976;20.038;2023-04-24T06:03:40;97011.63;;;14.41;47.05
76746;BME280;65671;49.976;20.038;2023-04-24T06:06:07;97012.28;;;14.45;48.01
76746;BME280;65671;49.976;20.038;2023-04-24T06:08:32;97011.09;;;14.46;46.96
76746;BME280;65671;49.976;20.038;2023-04-24T06:10:58;97014.03;;;14.39;44.25
76746;BME280;65671;49.976;20.038;2023-04-24T06:13:24;97009.19;;;14.56;44.77
76746;BME280;65671;49.976;20.038;2023-04-24T06:15:50;97015.56;;;14.74;45.58
76746;BME280;65671;49.976;20.038;2023-04-24T06:18:16;97018.66;;;14.85;47.74
76746;BME280;65671;49.976;20.038;2023-04-24T06:20:42;97003.38;;;14.66;45.39
76746;BME280;65671;49.976;20.038;2023-04-24T06:23:08;97001.94;;;14.74;44.83
76746;BME280;65671;49.976;20.038;2023-04-24T06:25:34;97006.63;;;14.95;43.43
76746;BME280;65671;49.976;20.038;2023-04-24T06:28:00;96994.97;;;15.17;46.10
76746;BME280;65671;49.976;20.038;2023-04-24T06:30:26;97002.97;;;15.11;42.30
76746;BME280;65671;49.976;20.038;2023-04-24T06:32:53;96997.16;;;15.31;43.94
76746;BME280;65671;49.976;20.038;2023-04-24T06:35:19;96996.53;;;15.48;45.24
76746;BME280;65671;49.976;20.038;2023-04-24T06:37:44;96990.03;;;15.55;44.98
76746;BME280;65671;49.976;20.038;2023-04-24T06:40:10;96987.03;;;15.62;43.58
76746;BME280;65671;49.976;20.038;2023-04-24T06:42:36;96990.72;;;15.77;44.00
76746;BME280;65671;49.976;20.038;2023-04-24T06:45:03;96992.44;;;15.93;43.19
76746;BME280;65671;49.976;20.038;2023-04-24T06:47:29;96986.88;;;16.05;43.61
76746;BME280;65671;49.976;20.038;2023-04-24T06:49:55;96987.13;;;15.89;43.03
76746;BME280;65671;49.976;20.038;2023-04-24T06:52:20;96992.75;;;15.95;43.10
76746;BME280;65671;49.976;20.038;2023-04-24T06:54:46;96991.25;;;15.94;41.24
76746;BME280;65671;49.976;20.038;2023-04-24T06:57:11;96989.66;;;16.24;41.65
76746;BME280;65671;49.976;20.038;2023-04-24T06:59:37;96992.53;;;16.29;43.55
76746;BME280;65671;49.976;20.038;2023-04-24T07:02:03;96987.25;;;16.44;38.94
76746;BME280;65671;49.976;20.038;2023-04-24T07:04:29;96981.91;;;16.31;40.83
76746;BME280;65671;49.976;20.038;2023-04-24T07:06:56;96984.19;;;16.42;41.38
76746;BME280;65671;49.976;20.038;2023-04-24T07:09:24;96982.41;;;16.57;38.32
76746;BME280;65671;49.976;20.038;2023-04-24T07:11:51;96975.13;;;16.81;41.76
76746;BME280;65671;49.976;20.038;2023-04-24T07:14:17;96975.41;;;16.92;39.29
76746;BME280;65671;49.976;20.038;2023-04-24T07:16:43;96975.41;;;16.83;40.52
76746;BME280;65671;49.976;20.038;2023-04-24T07:19:09;96972.25;;;16.85;40.56
76746;BME280;65671;49.976;20.038;2023-04-24T07:21:35;96969.94;;;16.74;38.61
76746;BME280;65671;49.976;20.038;2023-04-24T07:24:00;96971.16;;;17.00;38.21
76746;BME280;65671;49.976;20.038;2023-04-24T07:26:28;96966.13;;;16.99;38.37
76746;BME280;65671;49.976;20.038;2023-04-24T07:28:54;96962.19;;;17.09;39.59
76746;BME280;65671;49.976;20.038;2023-04-24T07:31:20;96968.38;;;17.09;37.25
76746;BME280;65671;49.976;20.038;2023-04-24T07:33:46;96962.03;;;17.03;39.58
76746;BME280;65671;49.976;20.038;2023-04-24T07:36:11;96959.34;;;17.36;40.60
76746;BME280;65671;49.976;20.038;2023-04-24T07:38:45;96958.47;;;17.30;37.06
76746;BME280;65671;49.976;20.038;2023-04-24T10:42:13;96831.31;;;20.95;28.04
76746;BME280;65671;49.976;20.038;2023-04-24T10:44:40;96834.44;;;21.40;31.18
76746;BME280;65671;49.976;20.038;2023-04-24T10:47:05;96823.72;;;21.53;29.77
76746;BME280;65671;49.976;20.038;2023-04-24T10:49:37;96823.56;;;21.67;29.37
76746;BME280;65671;49.976;20.038;2023-04-24T10:52:04;96817.75;;;21.54;31.24
76746;BME280;65671;49.976;20.038;2023-04-24T10:54:46;96820.75;;;21.56;32.21
76746;BME280;65671;49.976;20.038;2023-04-24T10:59:44;96817.22;;;21.98;31.58
76746;BME280;65671;49.976;20.038;2023-04-24T11:02:10;96814.50;;;22.09;31.99
76746;BME280;65671;49.976;20.038;2023-04-24T11:04:35;96809.31;;;21.75;29.73
76746;BME280;65671;49.976;20.038;2023-04-24T11:07:05;96814.50;;;22.15;30.20
76746;BME280;65671;49.976;20.038;2023-04-24T11:09:32;96826.69;;;21.92;27.23
76746;BME280;65671;49.976;20.038;2023-04-24T11:12:05;96819.63;;;21.85;27.89
76746;BME280;65671;49.976;20.038;2023-04-24T11:17:32;96813.16;;;21.88;29.71
76746;BME280;65671;49.976;20.038;2023-04-24T11:20:04;96815.94;;;21.94;29.25
76746;BME280;65671;49.976;20.038;2023-04-24T11:22:34;96815.34;;;21.79;28.45
76746;BME280;65671;49.976;20.038;2023-04-24T11:25:04;96809.41;;;21.91;28.44
76746;BME280;65671;49.976;20.038;2023-04-24T11:27:32;96802.25;;;22.21;30.21
76746;BME280;65671;49.976;20.038;2023-04-24T11:29:59;96802.53;;;22.40;30.82
76746;BME280;65671;49.976;20.038;2023-04-24T11:32:27;96797.75;;;22.24;32.44
76746;BME280;65671;49.976;20.038;2023-04-24T11:37:43;96803.88;;;22.67;30.71
76746;BME280;65671;49.976;20.038;2023-04-24T11:40:12;96798.78;;;22.38;27.87
76746;BME280;65671;49.976;20.038;2023-04-24T11:42:44;96800.25;;;22.28;29.38
76746;BME280;65671;49.976;20.038;2023-04-24T11:45:11;96794.28;;;22.62;26.64
76746;BME280;65671;49.976;20.038;2023-04-24T11:47:37;96793.00;;;22.30;28.84
76746;BME280;65671;49.976;20.038;2023-04-24T11:50:05;96786.28;;;21.78;28.36
76746;BME280;65671;49.976;20.038;2023-04-24T11:52:33;96778.63;;;21.45;29.90
76746;BME280;65671;49.976;20.038;2023-04-24T11:55:02;96786.88;;;21.93;29.41
76746;BME280;65671;49.976;20.038;2023-04-24T11:57:29;96789.13;;;21.94;28.58
76746;BME280;65671;49.976;20.038;2023-04-24T12:00:04;96782.66;;;22.08;30.85
76746;BME280;65671;49.976;20.038;2023-04-24T12:02:33;96778.56;;;21.87;37.42
76746;BME280;65671;49.976;20.038;2023-04-24T12:04:58;96772.50;;;21.78;29.03
76746;BME280;65671;49.976;20.038;2023-04-24T12:07:24;96775.00;;;21.76;32.67
76746;BME280;65671;49.976;20.038;2023-04-24T12:09:57;96774.94;;;21.64;33.54
76746;BME280;65671;49.976;20.038;2023-04-24T12:12:28;96767.59;;;21.45;35.65
76746;BME280;65671;49.976;20.038;2023-04-24T12:14:57;96771.63;;;21.49;34.51
76746;BME280;65671;49.976;20.038;2023-04-24T12:17:26;96768.22;;;21.71;31.57
76746;BME280;65671;49.976;20.038;2023-04-24T12:19:52;96767.06;;;21.89;32.13
76746;BME280;65671;49.976;20.038;2023-04-24T12:22:19;96769.53;;;21.87;32.06
76746;BME280;65671;49.976;20.038;2023-04-24T12:27:29;96756.38;;;21.54;34.71
76746;BME280;65671;49.976;20.038;2023-04-24T12:29:56;96747.00;;;20.61;35.06
76746;BME280;65671;49.976;20.038;2023-04-24T12:32:23;96751.66;;;20.81;38.93
76746;BME280;65671;49.976;20.038;2023-04-24T12:34:51;96749.91;;;20.52;35.41
76746;BME280;65671;49.976;20.038;2023-04-24T12:37:17;96750.78;;;20.12;41.04
76746;BME280;65671;49.976;20.038;2023-04-24T12:40:09;96738.41;;;19.76;36.61
76746;BME280;65671;49.976;20.038;2023-04-24T12:42:35;96747.97;;;19.81;35.10
76746;BME280;65671;49.976;20.038;2023-04-24T12:45:04;96742.38;;;19.75;38.22
76746;BME280;65671;49.976;20.038;2023-04-24T12:47:31;96734.63;;;19.33;39.60
76746;BME280;65671;49.976;20.038;2023-04-24T12:49:57;96751.28;;;19.30;38.46
76746;BME280;65671;49.976;20.038;2023-04-24T12:52:24;96752.94;;;19.22;38.91
76746;BME280;65671;49.976;20.038;2023-04-24T12:54:55;96766.13;;;19.03;38.82
76746;BME280;65671;49.976;20.038;2023-04-24T12:57:23;96760.97;;;18.90;37.08
76746;BME280;65671;49.976;20.038;2023-04-24T12:59:49;96771.09;;;18.40;39.82
76746;BME280;65671;49.976;20.038;2023-04-24T13:02:15;96782.41;;;18.19;40.97
76746;BME280;65671;49.976;20.038;2023-04-24T13:04:46;96770.81;;;18.09;42.23
76746;BME280;65671;49.976;20.038;2023-04-24T13:07:13;96770.94;;;17.91;43.20
76746;BME280;65671;49.976;20.038;2023-04-24T13:09:39;96784.72;;;17.82;44.74
76746;BME280;65671;49.976;20.038;2023-04-24T13:12:04;96777.50;;;17.70;44.33
76746;BME280;65671;49.976;20.038;2023-04-24T13:14:31;96787.94;;;17.57;42.87
76746;BME280;65671;49.976;20.038;2023-04-24T13:16:57;96787.97;;;17.48;44.52
76746;BME280;65671;49.976;20.038;2023-04-24T13:19:27;96781.38;;;17.30;45.41
76746;BME280;65671;49.976;20.038;2023-04-24T13:21:54;96788.84;;;16.97;46.07
76746;BME280;65671;49.976;20.038;2023-04-24T13:24:21;96795.59;;;16.78;47.57
76746;BME280;65671;49.976;20.038;2023-04-24T13:26:50;96796.88;;;16.68;47.03
76746;BME280;65671;49.976;20.038;2023-04-24T13:29:17;96799.31;;;16.57;48.39
76746;BME280;65671;49.976;20.038;2023-04-24T13:31:42;96803.75;;;16.27;49.42
76746;BME280;65671;49.976;20.038;2023-04-24T13:34:08;96794.06;;;16.08;49.45
76746;BME280;65671;49.976;20.038;2023-04-24T13:36:33;96801.34;;;15.93;51.67
76746;BME280;65671;49.976;20.038;2023-04-24T13:38:59;96794.53;;;15.88;50.53
76746;BME280;65671;49.976;20.038;2023-04-24T13:41:24;96809.69;;;15.98;49.61
76746;BME280;65671;49.976;20.038;2023-04-24T13:43:50;96807.41;;;15.88;50.53
76746;BME280;65671;49.976;20.038;2023-04-24T13:46:16;96801.34;;;15.84;49.83
76746;BME280;65671;49.976;20.038;2023-04-24T13:48:41;96807.84;;;15.77;50.23
76746;BME280;65671;49.976;20.038;2023-04-24T13:51:07;96802.38;;;15.68;50.35
76746;BME280;65671;49.976;20.038;2023-04-24T13:53:33;96805.56;;;15.57;51.40
76746;BME280;65671;49.976;20.038;2023-04-24T13:56:01;96807.53;;;15.57;50.89
76746;BME280;65671;49.976;20.038;2023-04-24T13:58:27;96806.56;;;15.42;51.36
76746;BME280;65671;49.976;20.038;2023-04-24T14:00:53;96809.91;;;15.46;51.33
76746;BME280;65671;49.976;20.038;2023-04-24T14:03:18;96818.91;;;15.55;52.44
76746;BME280;65671;49.976;20.038;2023-04-24T14:05:44;96817.53;;;15.51;51.48
76746;BME280;65671;49.976;20.038;2023-04-24T14:08:09;96817.19;;;15.40;53.34
76746;BME280;65671;49.976;20.038;2023-04-24T14:10:35;96821.56;;;15.37;52.85
76746;BME280;65671;49.976;20.038;2023-04-24T14:13:00;96814.72;;;15.33;54.86
76746;BME280;65671;49.976;20.038;2023-04-24T14:15:26;96821.59;;;15.46;53.58
76746;BME280;65671;49.976;20.038;2023-04-24T14:17:51;96829.00;;;15.46;53.94
76746;BME280;65671;49.976;20.038;2023-04-24T14:20:17;96826.28;;;15.46;52.63
76746;BME280;65671;49.976;20.038;2023-04-24T14:22:43;96828.44;;;15.51;51.49
76746;BME280;65671;49.976;20.038;2023-04-24T14:25:09;96829.66;;;15.50;52.00
76746;BME280;65671;49.976;20.038;2023-04-24T14:27:34;96821.44;;;15.41;52.36
76746;BME280;65671;49.976;20.038;2023-04-24T14:30:00;96826.88;;;15.41;52.90
76746;BME280;65671;49.976;20.038;2023-04-24T14:32:26;96828.22;;;15.36;53.28
76746;BME280;65671;49.976;20.038;2023-04-24T14:34:52;96833.81;;;15.33;54.39
76746;BME280;65671;49.976;20.038;2023-04-24T14:37:18;96825.63;;;15.33;54.76
76746;BME280;65671;49.976;20.038;2023-04-24T14:39:45;96833.53;;;15.31;55.45
76746;BME280;65671;49.976;20.038;2023-04-24T14:42:10;96833.78;;;15.24;55.55
76746;BME280;65671;49.976;20.038;2023-04-24T14:44:36;96823.78;;;15.21;53.94
76746;BME280;65671;49.976;20.038;2023-04-24T14:47:02;96832.44;;;15.28;54.14
76746;BME280;65671;49.976;20.038;2023-04-24T14:49:27;96833.53;;;15.31;54.70
76746;BME280;65671;49.976;20.038;2023-04-24T14:51:53;96828.97;;;15.28;55.30
76746;BME280;65671;49.976;20.038;2023-04-24T14:54:18;96833.63;;;15.18;55.93
76746;BME280;65671;49.976;20.038;2023-04-24T14:56:44;96834.38;;;15.19;56.73
76746;BME280;65671;49.976;20.038;2023-04-24T14:59:10;96839.22;;;15.15;56.34
76746;BME280;65671;49.976;20.038;2023-04-24T15:01:36;96826.16;;;15.09;56.29
76746;BME280;65671;49.976;20.038;2023-04-24T15:04:02;96836.81;;;15.17;55.87
76746;BME280;65671;49.976;20.038;2023-04-24T15:06:27;96832.13;;;15.17;57.01
76746;BME280;65671;49.976;20.038;2023-04-24T15:08:53;96834.19;;;15.04;57.74
76746;BME280;65671;49.976;20.038;2023-04-24T15:11:19;96833.16;;;15.11;57.99
76746;BME280;65671;49.976;20.038;2023-04-24T15:13:45;96834.31;;;15.00;57.00
76746;BME280;65671;49.976;20.038;2023-04-24T15:16:11;96828.22;;;14.87;57.76
76746;BME280;65671;49.976;20.038;2023-04-24T15:18:36;96831.53;;;14.91;59.24
76746;BME280;65671;49.976;20.038;2023-04-24T15:21:02;96829.72;;;14.88;57.75
76746;BME280;65671;49.976;20.038;2023-04-24T15:23:27;96832.19;;;14.95;58.34
76746;BME280;65671;49.976;20.038;2023-04-24T15:25:53;96831.41;;;14.95;57.98
76746;BME280;65671;49.976;20.038;2023-04-24T15:28:19;96825.06;;;14.98;57.38
76746;BME280;65671;49.976;20.038;2023-04-24T15:30:47;96825.69;;;15.02;58.05
76746;BME280;65671;49.976;20.038;2023-04-24T15:33:12;96834.00;;;14.98;57.55
76746;BME280;65671;49.976;20.038;2023-04-24T15:35:38;96822.66;;;15.00;57.52
76746;BME280;65671;49.976;20.038;2023-04-24T15:38:03;96827.34;;;14.99;58.80
76746;BME280;65671;49.976;20.038;2023-04-24T15:40:29;96825.75;;;14.80;58.79
76746;BME280;65671;49.976;20.038;2023-04-24T15:42:55;96817.34;;;14.66;58.26
76746;BME280;65671;49.976;20.038;2023-04-24T15:45:20;96826.53;;;14.59;58.60
76746;BME280;65671;49.976;20.038;2023-04-24T15:47:45;96822.97;;;14.40;57.73
76746;BME280;65671;49.976;20.038;2023-04-24T15:50:11;96823.47;;;14.48;58.51
76746;BME280;65671;49.976;20.038;2023-04-24T15:52:37;96828.72;;;14.42;58.99
76746;BME280;65671;49.976;20.038;2023-04-24T15:55:04;96830.38;;;14.40;58.21
76746;BME280;65671;49.976;20.038;2023-04-24T15:57:30;96833.78;;;14.31;59.71
76746;BME280;65671;49.976;20.038;2023-04-24T15:59:56;96842.38;;;14.30;60.31